createdAt,value
2022-12-16T00:02:23.153Z,4.70
2022-12-16T00:07:55.472Z,4.70
2022-12-16T00:13:41.037Z,5.10
2022-12-16T00:19:12.802Z,4.80
2022-12-16T00:24:44.710Z,5.10
2022-12-16T00:30:16.583Z,5.00
2022-12-16T00:33:02.099Z,5.10
2022-12-16T00:35:48.583Z,4.70
2022-12-16T00:38:34.674Z,4.60
2022-12-16T00:41:20.115Z,6.20
2022-12-16T00:44:05.822Z,4.80
2022-12-16T00:46:51.428Z,4.70
2022-12-16T00:52:24.015Z,5.00
2022-12-16T00:55:10.427Z,4.90
2022-12-16T01:03:28.779Z,4.60
2022-12-16T01:06:16.623Z,4.70
2022-12-16T01:09:02.029Z,4.80
2022-12-16T01:14:33.895Z,5.00
2022-12-16T01:17:19.698Z,5.00
2022-12-16T01:20:06.133Z,5.00
2022-12-16T01:22:51.549Z,5.00
2022-12-16T01:25:38.097Z,5.00
2022-12-16T01:28:23.940Z,4.80
2022-12-16T01:31:09.375Z,5.10
2022-12-16T01:33:55.077Z,4.70
2022-12-16T01:36:40.654Z,4.70
2022-12-16T01:39:27.438Z,5.20
2022-12-16T01:42:14.160Z,4.50
2022-12-16T01:45:25.281Z,5.10
2022-12-16T01:48:32.585Z,4.90
2022-12-16T01:51:26.672Z,5.10
2022-12-16T01:54:15.368Z,4.80
2022-12-16T01:57:08.791Z,4.80
2022-12-16T01:59:55.780Z,5.00
2022-12-16T02:02:44.255Z,5.10
2022-12-16T02:08:18.809Z,5.10
2022-12-16T02:11:28.352Z,4.90
2022-12-16T02:14:55.474Z,5.10
2022-12-16T02:18:02.575Z,5.20
2022-12-16T02:21:06.280Z,5.10
2022-12-16T02:24:29.397Z,5.20
2022-12-16T02:30:24.860Z,5.20
2022-12-16T02:33:35.994Z,5.20
2022-12-16T02:36:48.365Z,5.20
2022-12-16T02:39:38.600Z,5.40
2022-12-16T02:42:41.486Z,5.10
2022-12-16T02:45:30.747Z,5.30
2022-12-16T02:48:16.972Z,5.50
2022-12-16T02:51:02.642Z,5.20
2022-12-16T02:53:50.132Z,5.40
2022-12-16T02:56:58.731Z,5.30
2022-12-16T03:00:04.170Z,5.30
2022-12-16T03:02:59.034Z,5.50
2022-12-16T03:05:50.356Z,4.80
2022-12-16T03:08:40.961Z,5.50
2022-12-16T03:11:30.066Z,5.30
2022-12-16T03:14:18.510Z,4.20
2022-12-16T03:17:04.685Z,5.40
2022-12-16T03:19:57.335Z,5.20
2022-12-16T03:22:46.628Z,5.40
2022-12-16T03:25:35.965Z,5.40
2022-12-16T03:28:36.899Z,5.40
2022-12-16T03:31:37.566Z,5.50
2022-12-16T03:35:07.494Z,5.40
2022-12-16T03:37:56.638Z,5.40
2022-12-16T03:40:44.205Z,5.00
2022-12-16T03:43:30.532Z,5.10
2022-12-16T03:49:03.053Z,5.20
2022-12-16T03:51:48.672Z,5.00
2022-12-16T03:54:34.783Z,5.30
2022-12-16T03:57:20.365Z,4.90
2022-12-16T04:00:06.729Z,5.60
2022-12-16T04:05:45.672Z,5.50
2022-12-16T04:14:40.724Z,5.30
2022-12-16T04:21:00.932Z,5.10
2022-12-16T04:24:08.950Z,5.10
2022-12-16T04:30:19.909Z,4.90
2022-12-16T04:33:30.711Z,4.80
2022-12-16T04:36:34.916Z,5.20
2022-12-16T04:39:39.166Z,5.10
2022-12-16T04:42:43.475Z,4.70
2022-12-16T04:45:47.667Z,5.00
2022-12-16T04:51:57.086Z,5.00
2022-12-16T04:55:00.905Z,4.90
2022-12-16T04:58:12.486Z,5.00
2022-12-16T05:01:17.963Z,5.10
2022-12-16T05:04:22.380Z,5.10
2022-12-16T05:07:26.360Z,4.90
2022-12-16T05:10:30.598Z,4.80
2022-12-16T05:13:34.840Z,4.80
2022-12-16T05:19:43.797Z,4.70
2022-12-16T05:25:52.205Z,5.00
2022-12-16T05:28:56.252Z,4.90
2022-12-16T05:32:00.219Z,5.00
2022-12-16T05:38:08.885Z,4.90
2022-12-16T05:41:12.823Z,5.10
2022-12-16T05:50:26.420Z,5.00
2022-12-16T05:59:54.119Z,5.20
2022-12-16T06:02:58.245Z,4.80
2022-12-16T06:06:02.321Z,5.10
2022-12-16T06:09:06.289Z,5.10
2022-12-16T06:12:10.885Z,5.00
2022-12-16T06:15:15.117Z,6.00
2022-12-16T06:18:19.408Z,5.40
2022-12-16T06:21:23.514Z,4.90
2022-12-16T06:27:32.815Z,5.10
2022-12-16T06:30:37.100Z,5.10
2022-12-16T06:33:41.713Z,5.10
2022-12-16T06:36:45.845Z,5.40
2022-12-16T06:39:53.091Z,5.10
2022-12-16T06:43:00.129Z,4.80
2022-12-16T06:46:04.372Z,5.20
2022-12-16T06:55:17.874Z,4.80
2022-12-16T06:58:22.116Z,5.20
2022-12-16T07:01:26.357Z,5.20
2022-12-16T07:10:40.225Z,5.20
2022-12-16T07:13:44.213Z,5.00
2022-12-16T07:16:50.166Z,5.10
2022-12-16T07:19:56.120Z,5.20
2022-12-16T07:23:11.838Z,5.30
2022-12-16T07:35:31.120Z,5.30
2022-12-16T07:44:44.519Z,5.20
2022-12-16T07:47:49.250Z,6.10
2022-12-16T07:50:54.712Z,5.50
2022-12-16T07:57:04.693Z,5.30
2022-12-16T08:06:24.104Z,5.30
2022-12-16T08:09:28.111Z,5.40
2022-12-16T08:21:46.667Z,5.30
2022-12-16T08:24:53.443Z,5.40
2022-12-16T08:31:09.120Z,5.50
2022-12-16T08:34:13.402Z,5.40
2022-12-16T08:40:35.312Z,6.60
2022-12-16T08:43:41.251Z,5.60
2022-12-16T08:52:58.860Z,5.60
2022-12-16T08:56:02.821Z,6.00
2022-12-16T08:59:06.702Z,5.90
2022-12-16T09:08:22.297Z,6.00
2022-12-16T09:14:30.999Z,5.80
2022-12-16T09:20:39.529Z,5.70
2022-12-16T09:23:43.636Z,5.90
2022-12-16T09:26:48.847Z,5.90
2022-12-16T09:33:02.553Z,5.70
2022-12-16T09:36:06.565Z,5.90
2022-12-16T09:42:33.943Z,6.00
2022-12-16T09:46:22.086Z,6.00
2022-12-16T09:49:29.619Z,6.00
2022-12-16T09:52:36.223Z,6.00
2022-12-16T09:55:56.970Z,6.20
2022-12-16T09:59:14.576Z,6.20
2022-12-16T10:02:19.951Z,6.00
2022-12-16T10:05:34.203Z,6.30
2022-12-16T10:08:54.162Z,6.30
2022-12-16T10:12:10.540Z,6.40
2022-12-16T10:15:28.682Z,6.10
2022-12-16T10:18:47.454Z,6.30
2022-12-16T10:22:01.546Z,6.40
2022-12-16T10:25:39.481Z,6.40
2022-12-16T10:29:03.197Z,6.40
2022-12-16T10:35:14.188Z,6.40
2022-12-16T10:38:18.989Z,6.50
2022-12-16T10:44:55.717Z,6.40
2022-12-16T10:47:59.886Z,6.30
2022-12-16T10:51:06.148Z,6.60
2022-12-16T10:54:22.890Z,6.40
2022-12-16T10:57:36.409Z,6.50
2022-12-16T11:00:57.018Z,6.30
2022-12-16T11:07:06.245Z,6.30
2022-12-16T11:13:36.506Z,6.40
2022-12-16T11:16:47.141Z,6.20
2022-12-16T11:19:51.438Z,6.40
2022-12-16T11:22:55.466Z,6.50
2022-12-16T11:32:17.909Z,6.60
2022-12-16T11:35:25.048Z,6.20
2022-12-16T11:38:40.556Z,6.00
2022-12-16T11:41:54.721Z,6.40
2022-12-16T11:45:07.404Z,6.50
2022-12-16T11:48:16.569Z,6.60
2022-12-16T11:51:21.960Z,6.50
2022-12-16T11:54:35.781Z,6.60
2022-12-16T11:57:59.488Z,6.00
2022-12-16T12:01:13.499Z,6.40
2022-12-16T12:04:18.320Z,6.60
2022-12-16T12:07:44.831Z,7.50
2022-12-16T12:11:13.632Z,6.70
2022-12-16T12:14:52.227Z,6.80
2022-12-16T12:18:36.266Z,6.50
2022-12-16T12:21:43.567Z,6.80
2022-12-16T12:24:59.941Z,6.60
2022-12-16T12:28:11.955Z,6.90
2022-12-16T12:31:54.115Z,6.70
2022-12-16T12:35:23.773Z,6.60
2022-12-16T12:38:56.432Z,6.80
2022-12-16T12:42:10.576Z,6.90
2022-12-16T12:45:20.745Z,7.00
2022-12-16T12:48:45.613Z,6.50
2022-12-16T12:52:11.932Z,7.20
2022-12-16T12:55:40.127Z,6.60
2022-12-16T12:58:45.412Z,6.50
2022-12-16T13:01:53.162Z,6.80
2022-12-16T13:04:58.570Z,6.60
2022-12-16T13:11:07.806Z,6.40
2022-12-16T13:20:52.236Z,6.80
2022-12-16T13:23:58.931Z,6.90
2022-12-16T13:27:20.216Z,6.90
2022-12-16T13:30:45.716Z,6.80
2022-12-16T13:33:50.905Z,7.60
2022-12-16T13:40:02.196Z,7.00
2022-12-16T13:46:32.329Z,7.00
2022-12-16T13:49:54.774Z,6.90
2022-12-16T13:56:14.775Z,7.00
2022-12-16T13:59:23.895Z,7.80
2022-12-16T14:02:58.839Z,6.70
2022-12-16T14:12:23.140Z,7.00
2022-12-16T14:15:45.672Z,6.80
2022-12-16T14:19:11.834Z,7.00
2022-12-16T14:22:23.143Z,6.90
2022-12-16T14:25:40.061Z,7.00
2022-12-16T14:28:48.596Z,7.00
2022-12-16T14:32:01.019Z,7.10
2022-12-16T14:35:05.373Z,6.90
2022-12-16T14:38:09.425Z,6.90
2022-12-16T14:41:13.780Z,6.90
2022-12-16T14:44:18.243Z,7.10
2022-12-16T14:50:48.314Z,7.10
2022-12-16T14:53:58.363Z,6.80
2022-12-16T15:03:38.530Z,7.20
2022-12-16T15:06:58.093Z,7.10
2022-12-16T15:10:06.827Z,6.80
2022-12-16T15:19:21.424Z,7.10
2022-12-16T15:22:31.266Z,6.80
2022-12-16T15:25:41.569Z,7.10
2022-12-16T15:28:58.153Z,6.90
2022-12-16T15:32:03.917Z,7.10
2022-12-16T15:35:08.439Z,7.70
2022-12-16T15:47:40.300Z,7.30
2022-12-16T15:50:47.510Z,7.00
2022-12-16T15:54:49.527Z,7.70
2022-12-16T15:57:56.528Z,6.90
2022-12-16T16:01:16.103Z,6.90
2022-12-16T16:04:20.826Z,6.90
2022-12-16T16:07:40.154Z,6.90
2022-12-16T16:13:49.147Z,7.10
2022-12-16T16:16:53.359Z,6.90
2022-12-16T16:20:03.019Z,6.80
2022-12-16T16:29:17.277Z,6.70
2022-12-16T16:32:24.017Z,6.80
2022-12-16T16:35:27.983Z,6.50
2022-12-16T16:38:32.520Z,7.10
2022-12-16T16:44:40.969Z,6.60
2022-12-16T16:47:44.958Z,6.80
2022-12-16T16:50:48.899Z,6.40
2022-12-16T16:53:53.186Z,6.90
2022-12-16T16:56:57.485Z,7.00
2022-12-16T17:00:02.556Z,6.60
2022-12-16T17:03:06.627Z,7.30
2022-12-16T17:06:11.693Z,6.90
2022-12-16T17:12:28.377Z,6.80
2022-12-16T17:16:00.581Z,6.90
2022-12-16T17:19:05.717Z,7.10
2022-12-16T17:22:11.107Z,6.70
2022-12-16T17:25:16.427Z,6.60
2022-12-16T17:28:28.228Z,6.60
2022-12-16T17:40:48.497Z,6.80
2022-12-16T17:43:52.408Z,6.80
2022-12-16T17:46:56.479Z,6.80
2022-12-16T17:50:00.679Z,6.70
2022-12-16T17:53:05.055Z,6.70
2022-12-16T17:56:09.240Z,6.70
2022-12-16T17:59:59.466Z,6.70
2022-12-16T18:03:03.860Z,6.70
2022-12-16T18:06:13.874Z,6.70
2022-12-16T18:09:22.577Z,6.60
2022-12-16T18:12:27.330Z,6.80
2022-12-16T18:15:32.391Z,6.70
2022-12-16T18:18:46.010Z,6.70
2022-12-16T18:21:51.705Z,6.70
2022-12-16T18:24:55.927Z,6.80
2022-12-16T18:28:00.043Z,6.80
2022-12-16T18:31:04.087Z,6.80
2022-12-16T18:34:08.713Z,6.80
2022-12-16T18:37:12.669Z,6.90
2022-12-16T18:40:18.090Z,6.90
2022-12-16T18:43:23.379Z,6.90
2022-12-16T18:46:27.227Z,6.90
2022-12-16T18:52:37.360Z,6.90
2022-12-16T18:58:53.321Z,6.90
2022-12-16T19:01:58.131Z,6.90
2022-12-16T19:05:02.196Z,6.90
2022-12-16T19:08:11.141Z,6.80
2022-12-16T19:11:18.456Z,6.80
2022-12-16T19:14:22.488Z,6.90
2022-12-16T19:17:28.647Z,7.40
2022-12-16T19:20:33.334Z,6.80
2022-12-16T19:26:42.471Z,6.70
2022-12-16T19:29:46.409Z,6.70
2022-12-16T19:32:57.899Z,6.70
2022-12-16T19:36:02.497Z,6.60
2022-12-16T19:42:10.970Z,6.50
2022-12-16T19:48:24.044Z,6.60
2022-12-16T19:51:28.316Z,6.60
2022-12-16T19:54:32.521Z,6.50
2022-12-16T19:57:41.152Z,6.50
2022-12-16T20:00:46.045Z,6.60
2022-12-16T20:07:01.085Z,6.60
2022-12-16T20:10:05.033Z,6.50
2022-12-16T20:16:23.275Z,6.80
2022-12-16T20:19:27.613Z,6.10
2022-12-16T20:22:31.669Z,7.10
2022-12-16T20:25:36.109Z,6.80
2022-12-16T20:28:40.154Z,6.70
2022-12-16T20:34:48.627Z,6.80
2022-12-16T20:41:00.398Z,6.80
2022-12-16T20:44:09.381Z,6.60
2022-12-16T20:47:13.443Z,7.00
2022-12-16T20:50:17.424Z,6.50
2022-12-16T20:53:21.519Z,6.70
2022-12-16T20:56:26.000Z,7.00
2022-12-16T20:59:30.214Z,6.90
2022-12-16T21:02:35.612Z,6.90
2022-12-16T21:08:46.122Z,6.70
2022-12-16T21:11:50.356Z,6.90
2022-12-16T21:18:00.607Z,7.00
2022-12-16T21:21:11.253Z,6.80
2022-12-16T21:24:17.681Z,6.80
2022-12-16T21:27:21.858Z,6.70
2022-12-16T21:30:26.489Z,6.90
2022-12-16T21:33:56.557Z,6.50
2022-12-16T21:46:14.357Z,6.90
2022-12-16T21:49:18.521Z,7.00
2022-12-16T21:52:23.073Z,6.80
2022-12-16T21:58:32.241Z,7.20
2022-12-16T22:01:36.412Z,7.00
2022-12-16T22:04:40.243Z,6.60
2022-12-16T22:07:46.549Z,7.00
2022-12-16T22:17:05.528Z,7.50
2022-12-16T22:23:14.740Z,6.80
2022-12-16T22:26:19.960Z,6.50
2022-12-16T22:35:33.078Z,6.70
2022-12-16T22:38:37.375Z,7.00
2022-12-16T22:41:41.572Z,7.20
2022-12-16T22:44:45.470Z,7.00
2022-12-16T22:47:50.130Z,7.30
2022-12-16T22:50:54.178Z,7.10
2022-12-16T22:57:04.993Z,6.90
2022-12-16T23:00:09.066Z,7.00
2022-12-16T23:03:16.228Z,7.00
2022-12-16T23:06:20.928Z,7.20
2022-12-16T23:09:25.221Z,7.70
2022-12-16T23:15:38.668Z,7.00
2022-12-16T23:18:43.080Z,7.30
2022-12-16T23:24:51.763Z,6.90
2022-12-16T23:27:56.125Z,6.70
2022-12-16T23:31:00.802Z,7.40
2022-12-16T23:34:05.092Z,6.90
2022-12-16T23:37:09.228Z,6.80
2022-12-16T23:40:13.957Z,6.80
2022-12-16T23:49:27.218Z,6.80
2022-12-16T23:55:35.701Z,7.20
2022-12-16T23:58:39.973Z,7.30
